Pagrindinis puslapis
METAR-TAF:

METAR-TAF

Oro uostai :

Lubbock, Teksasas, Jungtinės Amerikos Valstijos

platuma: 33-40-03N, ilguma: 101-49-17W, Aukštis: 1000 m

Dabartinis oras

Ataskaita buvo paskelbta 1 valandą ir 3 minutes, ne 15:53 UTC
Vėjas 6 kt nuo kintamojo kryptimis
Temperatūra 17°C
Drėgmė 39%
Slėgis 1021 hPa
Matomumas: 16.1 km
Mažai debesys ne aukštis 25000 ft

METAR: KLBB 311553Z VRB06KT 10SM FEW250 17/03 A3014 RMK AO2 SLP177 T01670028

Laikas: 11:56 (16:56 UTC)

Prognozė

Ataskaita buvo paskelbta 5 valandos ir 36 minutes, ne 11:20 UTC
Prognozė galioja nuo 31 metu 12 UTC su 01 metu 12 UTC
Vėjas 8 kt iš Šiaurės Vakarų
Matomumas: 10 km
Giedras dangus
Nuo 31 metu 2200 UTC
Vėjas 10 kt iš Pietų
Matomumas: 10 km
Giedras dangus

TAF: KLBB 311120Z 3112/0112 31008KT P6SM SKC FM312200 18010KT P6SM SKC

Orai ataskaitas ir orų prognozės (METAR, TAF).

turimą stotys yra geltonos ir raudonos taškus žemėlapyje.

Perkelti pele per norėdami pamatyti stoties vardą.

Tada spustelėkite, norėdami matyti oro stebėjimo ir prognozės.

Norėdami pakeisti žemėlapį: spustelėkite ant žalios mygtukų su juodo kryžiaus žemyn,; žalią mygtuką su brūkšneliu, jei norite nutolinti; arba žalių rodyklių gretimoms žemėlapius.


METAR-TAF: